sensor_id;sensor_type;location;lat;lon;timestamp;pressure;altitude;pressure_sealevel;temperature;humidity
62634;BME280;48704;50.534;6.442;2023-05-24T00:01:26;96133.91;;;6.19;100.00
62634;BME280;48704;50.534;6.442;2023-05-24T00:03:53;96136.09;;;5.46;100.00
62634;BME280;48704;50.534;6.442;2023-05-24T00:06:19;96147.47;;;5.64;100.00
62634;BME280;48704;50.534;6.442;2023-05-24T00:08:45;96146.91;;;5.57;100.00
62634;BME280;48704;50.534;6.442;2023-05-24T00:11:10;96150.75;;;5.59;100.00
62634;BME280;48704;50.534;6.442;2023-05-24T00:13:36;96146.91;;;5.57;100.00
62634;BME280;48704;50.534;6.442;2023-05-24T00:16:01;96153.19;;;5.57;100.00
62634;BME280;48704;50.534;6.442;2023-05-24T00:18:26;96153.94;;;5.25;100.00
62634;BME280;48704;50.534;6.442;2023-05-24T00:20:52;96153.00;;;5.32;100.00
62634;BME280;48704;50.534;6.442;2023-05-24T00:23:17;96156.97;;;5.31;100.00
62634;BME280;48704;50.534;6.442;2023-05-24T00:25:42;96152.91;;;5.35;100.00
62634;BME280;48704;50.534;6.442;2023-05-24T00:28:08;96151.03;;;5.49;100.00
62634;BME280;48704;50.534;6.442;2023-05-24T00:30:33;96160.63;;;5.08;100.00
62634;BME280;48704;50.534;6.442;2023-05-24T00:32:58;96153.00;;;4.96;100.00
62634;BME280;48704;50.534;6.442;2023-05-24T00:35:23;96149.28;;;4.66;100.00
62634;BME280;48704;50.534;6.442;2023-05-24T00:37:49;96153.84;;;4.93;100.00
62634;BME280;48704;50.534;6.442;2023-05-24T00:40:14;96156.97;;;4.95;100.00
62634;BME280;48704;50.534;6.442;2023-05-24T00:42:39;96156.00;;;4.65;100.00
62634;BME280;48704;50.534;6.442;2023-05-24T00:45:05;96161.94;;;4.84;100.00
62634;BME280;48704;50.534;6.442;2023-05-24T00:47:32;96156.84;;;4.62;100.00
62634;BME280;48704;50.534;6.442;2023-05-24T00:49:58;96151.44;;;4.95;100.00
62634;BME280;48704;50.534;6.442;2023-05-24T00:52:23;96152.03;;;4.66;100.00
62634;BME280;48704;50.534;6.442;2023-05-24T00:54:49;96157.81;;;4.92;100.00
62634;BME280;48704;50.534;6.442;2023-05-24T00:57:15;96152.63;;;4.78;100.00
62634;BME280;48704;50.534;6.442;2023-05-24T00:59:43;96142.66;;;5.00;100.00
62634;BME280;48704;50.534;6.442;2023-05-24T01:02:08;96148.03;;;5.07;100.00
62634;BME280;48704;50.534;6.442;2023-05-24T01:04:34;96137.84;;;5.20;100.00
62634;BME280;48704;50.534;6.442;2023-05-24T01:07:11;96143.63;;;4.74;100.00
62634;BME280;48704;50.534;6.442;2023-05-24T01:12:55;96132.47;;;4.97;100.00
62634;BME280;48704;50.534;6.442;2023-05-24T01:15:52;96138.34;;;4.99;100.00
62634;BME280;48704;50.534;6.442;2023-05-24T01:18:25;96139.09;;;5.19;100.00
62634;BME280;48704;50.534;6.442;2023-05-24T01:21:15;96137.00;;;5.23;100.00
62634;BME280;48704;50.534;6.442;2023-05-24T01:23:47;96138.03;;;5.29;100.00
62634;BME280;48704;50.534;6.442;2023-05-24T01:26:36;96144.66;;;4.99;100.00
62634;BME280;48704;50.534;6.442;2023-05-24T01:29:04;96138.56;;;4.88;100.00
62634;BME280;48704;50.534;6.442;2023-05-24T01:31:29;96136.13;;;5.10;100.00
62634;BME280;48704;50.534;6.442;2023-05-24T01:33:55;96140.44;;;5.11;100.00
62634;BME280;48704;50.534;6.442;2023-05-24T01:36:20;96136.56;;;5.25;100.00
62634;BME280;48704;50.534;6.442;2023-05-24T01:38:47;96133.72;;;5.28;100.00
62634;BME280;48704;50.534;6.442;2023-05-24T01:41:36;96139.88;;;5.20;100.00
62634;BME280;48704;50.534;6.442;2023-05-24T01:44:26;96137.41;;;5.22;100.00
62634;BME280;48704;50.534;6.442;2023-05-24T01:48:01;96138.56;;;5.24;100.00
62634;BME280;48704;50.534;6.442;2023-05-24T01:49:58;96124.31;;;5.26;100.00
62634;BME280;48704;50.534;6.442;2023-05-24T01:52:28;96134.78;;;5.18;100.00
62634;BME280;48704;50.534;6.442;2023-05-24T01:54:55;96145.63;;;5.09;100.00
62634;BME280;48704;50.534;6.442;2023-05-24T01:57:21;96140.59;;;5.04;100.00
62634;BME280;48704;50.534;6.442;2023-05-24T01:59:48;96138.84;;;4.94;100.00
62634;BME280;48704;50.534;6.442;2023-05-24T02:02:14;96141.25;;;4.92;100.00
62634;BME280;48704;50.534;6.442;2023-05-24T02:04:39;96135.34;;;4.74;100.00
62634;BME280;48704;50.534;6.442;2023-05-24T02:07:05;96138.47;;;4.76;100.00
62634;BME280;48704;50.534;6.442;2023-05-24T02:09:30;96135.88;;;4.85;100.00
62634;BME280;48704;50.534;6.442;2023-05-24T02:11:55;96134.00;;;4.82;100.00
62634;BME280;48704;50.534;6.442;2023-05-24T02:14:21;96137.19;;;4.80;100.00
62634;BME280;48704;50.534;6.442;2023-05-24T02:16:46;96135.34;;;4.74;100.00
62634;BME280;48704;50.534;6.442;2023-05-24T02:19:12;96130.81;;;4.63;100.00
62634;BME280;48704;50.534;6.442;2023-05-24T02:21:37;96132.66;;;3.87;100.00
62634;BME280;48704;50.534;6.442;2023-05-24T02:24:03;96127.53;;;4.09;100.00
62634;BME280;48704;50.534;6.442;2023-05-24T02:26:28;96124.53;;;3.57;100.00
62634;BME280;48704;50.534;6.442;2023-05-24T02:28:54;96125.13;;;3.91;100.00
62634;BME280;48704;50.534;6.442;2023-05-24T02:31:19;96118.41;;;3.92;100.00
62634;BME280;48704;50.534;6.442;2023-05-24T02:33:45;96113.94;;;3.55;100.00
62634;BME280;48704;50.534;6.442;2023-05-24T02:36:11;96110.75;;;3.57;100.00
62634;BME280;48704;50.534;6.442;2023-05-24T02:38:36;96114.94;;;3.65;100.00
62634;BME280;48704;50.534;6.442;2023-05-24T02:41:02;96121.41;;;4.21;100.00
62634;BME280;48704;50.534;6.442;2023-05-24T02:43:27;96106.56;;;4.35;100.00
62634;BME280;48704;50.534;6.442;2023-05-24T02:45:52;96109.88;;;4.46;100.00
62634;BME280;48704;50.534;6.442;2023-05-24T02:48:18;96096.91;;;4.63;100.00
62634;BME280;48704;50.534;6.442;2023-05-24T02:50:43;96094.72;;;4.15;100.00
62634;BME280;48704;50.534;6.442;2023-05-24T02:53:08;96097.69;;;3.61;100.00
62634;BME280;48704;50.534;6.442;2023-05-24T02:55:33;96096.22;;;4.19;100.00
62634;BME280;48704;50.534;6.442;2023-05-24T02:57:59;96099.69;;;4.03;100.00
62634;BME280;48704;50.534;6.442;2023-05-24T03:00:25;96098.41;;;4.28;100.00
62634;BME280;48704;50.534;6.442;2023-05-24T03:02:50;96096.94;;;4.23;100.00
62634;BME280;48704;50.534;6.442;2023-05-24T03:05:16;96094.25;;;4.20;100.00
62634;BME280;48704;50.534;6.442;2023-05-24T03:07:42;96102.97;;;4.38;100.00
62634;BME280;48704;50.534;6.442;2023-05-24T03:10:08;96103.66;;;4.42;100.00
62634;BME280;48704;50.534;6.442;2023-05-24T03:12:33;96100.63;;;4.36;100.00
62634;BME280;48704;50.534;6.442;2023-05-24T03:14:58;96105.34;;;4.36;100.00
62634;BME280;48704;50.534;6.442;2023-05-24T03:17:24;96105.75;;;4.15;100.00
62634;BME280;48704;50.534;6.442;2023-05-24T03:19:49;96100.69;;;4.33;100.00
62634;BME280;48704;50.534;6.442;2023-05-24T03:22:16;96103.09;;;4.31;100.00
62634;BME280;48704;50.534;6.442;2023-05-24T03:24:41;96108.97;;;4.33;100.00
62634;BME280;48704;50.534;6.442;2023-05-24T03:27:06;96103.81;;;4.35;100.00
62634;BME280;48704;50.534;6.442;2023-05-24T03:29:32;96100.84;;;3.83;100.00
62634;BME280;48704;50.534;6.442;2023-05-24T03:31:58;96106.88;;;3.97;100.00
62634;BME280;48704;50.534;6.442;2023-05-24T03:34:23;96107.38;;;3.92;100.00
62634;BME280;48704;50.534;6.442;2023-05-24T03:36:49;96109.66;;;3.74;100.00
62634;BME280;48704;50.534;6.442;2023-05-24T03:39:14;96106.75;;;3.11;100.00
62634;BME280;48704;50.534;6.442;2023-05-24T03:41:39;96106.75;;;3.11;100.00
62634;BME280;48704;50.534;6.442;2023-05-24T03:44:05;96105.00;;;3.24;100.00
62634;BME280;48704;50.534;6.442;2023-05-24T03:46:30;96108.88;;;3.74;100.00
62634;BME280;48704;50.534;6.442;2023-05-24T03:48:55;96108.16;;;3.93;100.00
62634;BME280;48704;50.534;6.442;2023-05-24T03:51:21;96101.38;;;3.97;100.00
62634;BME280;48704;50.534;6.442;2023-05-24T03:53:53;96105.09;;;3.87;100.00
62634;BME280;48704;50.534;6.442;2023-05-24T03:56:19;96103.22;;;3.61;100.00
62634;BME280;48704;50.534;6.442;2023-05-24T03:58:44;96102.69;;;3.19;100.00
62634;BME280;48704;50.534;6.442;2023-05-24T04:01:09;96112.38;;;3.04;100.00
62634;BME280;48704;50.534;6.442;2023-05-24T04:03:36;96101.13;;;2.95;100.00
62634;BME280;48704;50.534;6.442;2023-05-24T04:06:01;96099.28;;;2.85;100.00
62634;BME280;48704;50.534;6.442;2023-05-24T04:08:26;96110.19;;;2.92;100.00
62634;BME280;48704;50.534;6.442;2023-05-24T04:10:54;96111.03;;;2.89;100.00
62634;BME280;48704;50.534;6.442;2023-05-24T04:13:19;96108.09;;;3.26;100.00
62634;BME280;48704;50.534;6.442;2023-05-24T04:15:45;96106.66;;;3.42;100.00
62634;BME280;48704;50.534;6.442;2023-05-24T04:18:10;96110.63;;;3.64;100.00
62634;BME280;48704;50.534;6.442;2023-05-24T04:20:36;96105.97;;;3.61;100.00
62634;BME280;48704;50.534;6.442;2023-05-24T04:23:02;96105.72;;;3.28;100.00
62634;BME280;48704;50.534;6.442;2023-05-24T04:25:28;96111.53;;;3.07;100.00
62634;BME280;48704;50.534;6.442;2023-05-24T04:27:53;96120.78;;;3.20;100.00
62634;BME280;48704;50.534;6.442;2023-05-24T04:30:20;96125.50;;;3.70;100.00
62634;BME280;48704;50.534;6.442;2023-05-24T04:32:46;96122.13;;;3.82;100.00
62634;BME280;48704;50.534;6.442;2023-05-24T04:35:12;96118.78;;;3.48;100.00
62634;BME280;48704;50.534;6.442;2023-05-24T04:37:38;96121.69;;;4.07;100.00
62634;BME280;48704;50.534;6.442;2023-05-24T04:40:05;96117.47;;;3.56;100.00
62634;BME280;48704;50.534;6.442;2023-05-24T04:42:32;96124.09;;;4.05;100.00
62634;BME280;48704;50.534;6.442;2023-05-24T04:44:57;96121.13;;;4.55;100.00
62634;BME280;48704;50.534;6.442;2023-05-24T04:47:23;96127.44;;;4.36;100.00
62634;BME280;48704;50.534;6.442;2023-05-24T04:49:49;96122.75;;;4.33;100.00
62634;BME280;48704;50.534;6.442;2023-05-24T04:52:15;96125.06;;;4.54;100.00
62634;BME280;48704;50.534;6.442;2023-05-24T04:54:40;96132.38;;;4.64;100.00
62634;BME280;48704;50.534;6.442;2023-05-24T04:57:05;96134.91;;;4.55;100.00
62634;BME280;48704;50.534;6.442;2023-05-24T04:59:31;96135.50;;;5.02;100.00
62634;BME280;48704;50.534;6.442;2023-05-24T05:01:56;96137.75;;;4.32;100.00
62634;BME280;48704;50.534;6.442;2023-05-24T05:04:22;96135.22;;;4.41;100.00
62634;BME280;48704;50.534;6.442;2023-05-24T05:06:47;96136.19;;;4.70;100.00
62634;BME280;48704;50.534;6.442;2023-05-24T05:09:12;96136.28;;;5.03;100.00
62634;BME280;48704;50.534;6.442;2023-05-24T05:11:39;96133.94;;;5.01;100.00
62634;BME280;48704;50.534;6.442;2023-05-24T05:14:04;96141.09;;;4.99;100.00
62634;BME280;48704;50.534;6.442;2023-05-24T05:16:30;96150.63;;;4.78;100.00
62634;BME280;48704;50.534;6.442;2023-05-24T05:18:56;96154.41;;;5.04;100.00
62634;BME280;48704;50.534;6.442;2023-05-24T05:21:21;96150.88;;;5.56;100.00
62634;BME280;48704;50.534;6.442;2023-05-24T05:23:46;96151.38;;;5.67;100.00
62634;BME280;48704;50.534;6.442;2023-05-24T05:26:12;96149.09;;;5.13;100.00
62634;BME280;48704;50.534;6.442;2023-05-24T05:28:37;96138.94;;;5.43;100.00
62634;BME280;48704;50.534;6.442;2023-05-24T05:31:02;96145.59;;;5.45;100.00
62634;BME280;48704;50.534;6.442;2023-05-24T05:33:30;96139.09;;;5.84;100.00
62634;BME280;48704;50.534;6.442;2023-05-24T05:35:55;96137.53;;;6.16;100.00
62634;BME280;48704;50.534;6.442;2023-05-24T05:38:21;96143.06;;;6.16;100.00
62634;BME280;48704;50.534;6.442;2023-05-24T05:40:46;96142.19;;;6.19;100.00
62634;BME280;48704;50.534;6.442;2023-05-24T05:43:11;96149.88;;;6.27;100.00
62634;BME280;48704;50.534;6.442;2023-05-24T05:45:37;96149.69;;;6.63;100.00
62634;BME280;48704;50.534;6.442;2023-05-24T05:48:02;96151.78;;;6.72;100.00
62634;BME280;48704;50.534;6.442;2023-05-24T05:50:27;96149.31;;;6.90;100.00
62634;BME280;48704;50.534;6.442;2023-05-24T05:52:52;96148.38;;;6.81;100.00
62634;BME280;48704;50.534;6.442;2023-05-24T05:55:18;96155.09;;;6.96;100.00
62634;BME280;48704;50.534;6.442;2023-05-24T05:57:43;96158.28;;;7.07;100.00
62634;BME280;48704;50.534;6.442;2023-05-24T06:00:09;96150.06;;;6.91;100.00
62634;BME280;48704;50.534;6.442;2023-05-24T06:02:34;96149.16;;;6.81;100.00
62634;BME280;48704;50.534;6.442;2023-05-24T06:05:00;96168.72;;;7.16;100.00
62634;BME280;48704;50.534;6.442;2023-05-24T06:07:25;96157.75;;;6.99;100.00
62634;BME280;48704;50.534;6.442;2023-05-24T06:09:50;96170.34;;;6.88;100.00
62634;BME280;48704;50.534;6.442;2023-05-24T06:12:15;96163.44;;;6.80;100.00
62634;BME280;48704;50.534;6.442;2023-05-24T06:14:41;96169.00;;;6.80;100.00
62634;BME280;48704;50.534;6.442;2023-05-24T06:17:06;96177.50;;;6.72;100.00
62634;BME280;48704;50.534;6.442;2023-05-24T06:19:31;96170.03;;;6.57;100.00
62634;BME280;48704;50.534;6.442;2023-05-24T06:21:57;96171.00;;;6.50;100.00
62634;BME280;48704;50.534;6.442;2023-05-24T06:24:23;96170.97;;;6.66;100.00
62634;BME280;48704;50.534;6.442;2023-05-24T06:26:50;96175.13;;;6.58;100.00
62634;BME280;48704;50.534;6.442;2023-05-24T06:29:16;96175.00;;;6.33;100.00
62634;BME280;48704;50.534;6.442;2023-05-24T06:31:44;96182.16;;;6.18;100.00
62634;BME280;48704;50.534;6.442;2023-05-24T06:34:11;96182.78;;;6.38;100.00
62634;BME280;48704;50.534;6.442;2023-05-24T06:36:36;96177.41;;;6.47;100.00
62634;BME280;48704;50.534;6.442;2023-05-24T06:39:06;96186.50;;;6.48;100.00
62634;BME280;48704;50.534;6.442;2023-05-24T06:41:32;96187.13;;;6.97;100.00
62634;BME280;48704;50.534;6.442;2023-05-24T06:43:58;96186.91;;;7.04;100.00
62634;BME280;48704;50.534;6.442;2023-05-24T06:46:23;96185.69;;;7.05;100.00
62634;BME280;48704;50.534;6.442;2023-05-24T06:48:48;96191.06;;;7.63;100.00
62634;BME280;48704;50.534;6.442;2023-05-24T06:51:14;96191.16;;;7.97;100.00
62634;BME280;48704;50.534;6.442;2023-05-24T06:53:39;96192.44;;;7.04;100.00
62634;BME280;48704;50.534;6.442;2023-05-24T06:56:05;96189.19;;;7.60;100.00
62634;BME280;48704;50.534;6.442;2023-05-24T06:58:33;96189.56;;;7.08;100.00
62634;BME280;48704;50.534;6.442;2023-05-24T07:00:58;96183.50;;;7.51;100.00
62634;BME280;48704;50.534;6.442;2023-05-24T07:03:24;96192.44;;;6.62;100.00
62634;BME280;48704;50.534;6.442;2023-05-24T07:05:49;96185.03;;;6.43;100.00
62634;BME280;48704;50.534;6.442;2023-05-24T07:08:14;96186.28;;;7.25;100.00
62634;BME280;48704;50.534;6.442;2023-05-24T07:10:40;96183.41;;;7.67;100.00
62634;BME280;48704;50.534;6.442;2023-05-24T07:13:05;96180.84;;;7.60;100.00
62634;BME280;48704;50.534;6.442;2023-05-24T07:15:30;96183.38;;;7.92;100.00
62634;BME280;48704;50.534;6.442;2023-05-24T07:17:56;96179.09;;;7.41;100.00
62634;BME280;48704;50.534;6.442;2023-05-24T07:20:21;96186.91;;;8.05;100.00
62634;BME280;48704;50.534;6.442;2023-05-24T07:22:46;96188.09;;;8.30;100.00
62634;BME280;48704;50.534;6.442;2023-05-24T07:25:11;96190.97;;;8.26;100.00
62634;BME280;48704;50.534;6.442;2023-05-24T07:27:37;96194.69;;;8.11;100.00
62634;BME280;48704;50.534;6.442;2023-05-24T07:30:03;96194.94;;;8.51;100.00
62634;BME280;48704;50.534;6.442;2023-05-24T07:32:28;96195.25;;;8.05;100.00
62634;BME280;48704;50.534;6.442;2023-05-24T07:34:54;96189.31;;;8.42;100.00
62634;BME280;48704;50.534;6.442;2023-05-24T07:37:19;96194.22;;;8.59;100.00
62634;BME280;48704;50.534;6.442;2023-05-24T07:39:48;96190.03;;;8.08;100.00
62634;BME280;48704;50.534;6.442;2023-05-24T07:42:14;96201.13;;;8.08;100.00
62634;BME280;48704;50.534;6.442;2023-05-24T07:44:39;96205.03;;;7.47;100.00
62634;BME280;48704;50.534;6.442;2023-05-24T07:47:04;96201.16;;;7.69;100.00
62634;BME280;48704;50.534;6.442;2023-05-24T07:49:30;96210.69;;;7.30;100.00
62634;BME280;48704;50.534;6.442;2023-05-24T07:51:55;96218.22;;;8.06;100.00
62634;BME280;48704;50.534;6.442;2023-05-24T07:54:23;96215.78;;;8.55;100.00
62634;BME280;48704;50.534;6.442;2023-05-24T07:56:49;96211.78;;;8.91;100.00
62634;BME280;48704;50.534;6.442;2023-05-24T07:59:14;96202.66;;;9.12;100.00
62634;BME280;48704;50.534;6.442;2023-05-24T08:01:39;96207.44;;;8.68;100.00
62634;BME280;48704;50.534;6.442;2023-05-24T08:04:05;96209.34;;;8.58;100.00
62634;BME280;48704;50.534;6.442;2023-05-24T08:06:33;96208.34;;;7.92;100.00
62634;BME280;48704;50.534;6.442;2023-05-24T08:08:59;96212.97;;;8.21;100.00
62634;BME280;48704;50.534;6.442;2023-05-24T08:11:24;96203.91;;;8.55;100.00
62634;BME280;48704;50.534;6.442;2023-05-24T08:13:50;96218.53;;;8.68;100.00
62634;BME280;48704;50.534;6.442;2023-05-24T08:16:16;96222.63;;;9.42;100.00
62634;BME280;48704;50.534;6.442;2023-05-24T08:18:42;96215.06;;;9.42;100.00
62634;BME280;48704;50.534;6.442;2023-05-24T08:21:07;96224.94;;;9.65;100.00
62634;BME280;48704;50.534;6.442;2023-05-24T08:23:33;96215.28;;;9.88;100.00
62634;BME280;48704;50.534;6.442;2023-05-24T08:25:58;96220.13;;;10.05;96.20
62634;BME280;48704;50.534;6.442;2023-05-24T08:28:24;96218.97;;;10.25;100.00
62634;BME280;48704;50.534;6.442;2023-05-24T08:30:50;96223.94;;;9.90;100.00
62634;BME280;48704;50.534;6.442;2023-05-24T08:33:15;96224.50;;;10.16;97.83
62634;BME280;48704;50.534;6.442;2023-05-24T08:35:40;96220.97;;;9.22;100.00
62634;BME280;48704;50.534;6.442;2023-05-24T08:38:06;96230.25;;;9.81;100.00
62634;BME280;48704;50.534;6.442;2023-05-24T08:40:31;96216.13;;;10.16;97.87
62634;BME280;48704;50.534;6.442;2023-05-24T08:42:59;96220.16;;;10.15;99.08
62634;BME280;48704;50.534;6.442;2023-05-24T08:45:25;96216.25;;;10.89;92.96
62634;BME280;48704;50.534;6.442;2023-05-24T08:47:50;96218.25;;;10.02;98.39
62634;BME280;48704;50.534;6.442;2023-05-24T08:50:16;96218.25;;;9.93;98.92
62634;BME280;48704;50.534;6.442;2023-05-24T08:52:42;96210.78;;;10.30;94.99
62634;BME280;48704;50.534;6.442;2023-05-24T08:55:10;96218.94;;;9.01;100.00
62634;BME280;48704;50.534;6.442;2023-05-24T08:57:36;96210.47;;;7.88;100.00
62634;BME280;48704;50.534;6.442;2023-05-24T09:00:06;96208.31;;;8.18;100.00
62634;BME280;48704;50.534;6.442;2023-05-24T09:02:33;96207.84;;;9.01;100.00
62634;BME280;48704;50.534;6.442;2023-05-24T09:05:00;96205.16;;;9.41;100.00
62634;BME280;48704;50.534;6.442;2023-05-24T09:07:26;96208.31;;;10.32;97.19
62634;BME280;48704;50.534;6.442;2023-05-24T09:10:02;96211.44;;;10.53;92.60
62634;BME280;48704;50.534;6.442;2023-05-24T09:12:30;96207.28;;;10.76;90.03
62634;BME280;48704;50.534;6.442;2023-05-24T09:14:57;96205.72;;;10.84;89.07
62634;BME280;48704;50.534;6.442;2023-05-24T09:17:23;96202.03;;;10.68;93.18
62634;BME280;48704;50.534;6.442;2023-05-24T09:19:49;96205.50;;;9.83;94.32
62634;BME280;48704;50.534;6.442;2023-05-24T09:22:16;96212.59;;;9.75;94.93
62634;BME280;48704;50.534;6.442;2023-05-24T09:24:48;96216.47;;;9.47;94.59
62634;BME280;48704;50.534;6.442;2023-05-24T09:27:14;96213.00;;;9.95;93.67
62634;BME280;48704;50.534;6.442;2023-05-24T09:29:41;96211.88;;;10.42;90.57
62634;BME280;48704;50.534;6.442;2023-05-24T09:32:07;96214.38;;;10.58;90.91
62634;BME280;48704;50.534;6.442;2023-05-24T09:34:40;96215.25;;;11.56;87.52
62634;BME280;48704;50.534;6.442;2023-05-24T09:37:09;96214.81;;;11.48;87.16
62634;BME280;48704;50.534;6.442;2023-05-24T09:39:37;96196.00;;;11.58;87.62
62634;BME280;48704;50.534;6.442;2023-05-24T09:42:03;96213.25;;;11.98;89.46
62634;BME280;48704;50.534;6.442;2023-05-24T09:44:29;96204.81;;;12.64;84.73
62634;BME280;48704;50.534;6.442;2023-05-24T09:47:01;96208.19;;;11.27;90.07
62634;BME280;48704;50.534;6.442;2023-05-24T09:49:29;96206.03;;;10.58;87.21
62634;BME280;48704;50.534;6.442;2023-05-24T09:51:54;96197.97;;;10.88;88.52
62634;BME280;48704;50.534;6.442;2023-05-24T09:54:20;96199.44;;;12.04;85.76
62634;BME280;48704;50.534;6.442;2023-05-24T09:56:45;96194.31;;;11.51;89.13
62634;BME280;48704;50.534;6.442;2023-05-24T09:59:10;96204.66;;;11.69;85.32
62634;BME280;48704;50.534;6.442;2023-05-24T10:01:36;96196.81;;;12.57;80.40
62634;BME280;48704;50.534;6.442;2023-05-24T10:04:01;96192.31;;;11.94;81.89
62634;BME280;48704;50.534;6.442;2023-05-24T10:06:32;96189.00;;;12.14;81.13
62634;BME280;48704;50.534;6.442;2023-05-24T10:09:01;96191.56;;;11.93;81.30
62634;BME280;48704;50.534;6.442;2023-05-24T10:11:30;96195.34;;;11.81;84.82
62634;BME280;48704;50.534;6.442;2023-05-24T10:13:56;96193.28;;;11.91;83.97
62634;BME280;48704;50.534;6.442;2023-05-24T10:16:22;96202.09;;;11.98;84.57
62634;BME280;48704;50.534;6.442;2023-05-24T10:18:48;96198.34;;;12.01;84.38
62634;BME280;48704;50.534;6.442;2023-05-24T10:21:14;96198.88;;;11.21;90.03
62634;BME280;48704;50.534;6.442;2023-05-24T10:23:43;96206.28;;;10.24;93.65
62634;BME280;48704;50.534;6.442;2023-05-24T10:26:09;96198.88;;;10.30;96.54
62634;BME280;48704;50.534;6.442;2023-05-24T10:28:48;96197.94;;;10.42;98.36
62634;BME280;48704;50.534;6.442;2023-05-24T10:31:21;96209.78;;;10.15;100.00
62634;BME280;48704;50.534;6.442;2023-05-24T10:33:48;96208.97;;;10.82;95.61
62634;BME280;48704;50.534;6.442;2023-05-24T10:36:16;96208.34;;;10.87;95.25
62634;BME280;48704;50.534;6.442;2023-05-24T10:38:45;96211.22;;;9.49;100.00
62634;BME280;48704;50.534;6.442;2023-05-24T10:41:11;96211.28;;;10.38;98.92
62634;BME280;48704;50.534;6.442;2023-05-24T10:43:37;96208.06;;;9.99;100.00
62634;BME280;48704;50.534;6.442;2023-05-24T10:46:04;96213.25;;;9.88;100.00
62634;BME280;48704;50.534;6.442;2023-05-24T10:48:37;96217.34;;;10.05;100.00
62634;BME280;48704;50.534;6.442;2023-05-24T10:51:32;96219.38;;;9.74;100.00
62634;BME280;48704;50.534;6.442;2023-05-24T10:54:09;96210.38;;;9.61;100.00
62634;BME280;48704;50.534;6.442;2023-05-24T10:56:48;96214.81;;;9.27;100.00
62634;BME280;48704;50.534;6.442;2023-05-24T10:59:34;96218.81;;;9.04;100.00
62634;BME280;48704;50.534;6.442;2023-05-24T11:02:03;96214.59;;;9.75;100.00
62634;BME280;48704;50.534;6.442;2023-05-24T11:04:31;96212.78;;;10.21;100.00
62634;BME280;48704;50.534;6.442;2023-05-24T11:07:04;96211.28;;;10.56;100.00
62634;BME280;48704;50.534;6.442;2023-05-24T11:09:31;96212.00;;;10.20;100.00
62634;BME280;48704;50.534;6.442;2023-05-24T11:14:30;96215.63;;;10.85;99.36
62634;BME280;48704;50.534;6.442;2023-05-24T11:16:57;96201.97;;;11.14;100.00
62634;BME280;48704;50.534;6.442;2023-05-24T11:21:56;96201.09;;;10.71;99.58
62634;BME280;48704;50.534;6.442;2023-05-24T11:24:25;96200.16;;;10.75;100.00
62634;BME280;48704;50.534;6.442;2023-05-24T11:26:51;96200.00;;;10.78;100.00
62634;BME280;48704;50.534;6.442;2023-05-24T11:29:21;96207.22;;;10.21;100.00
62634;BME280;48704;50.534;6.442;2023-05-24T11:31:57;96214.81;;;10.29;100.00
62634;BME280;48704;50.534;6.442;2023-05-24T11:34:26;96205.56;;;10.78;100.00
62634;BME280;48704;50.534;6.442;2023-05-24T11:36:51;96204.59;;;10.26;100.00
62634;BME280;48704;50.534;6.442;2023-05-24T11:39:19;96205.59;;;10.01;100.00
62634;BME280;48704;50.534;6.442;2023-05-24T11:41:44;96202.63;;;10.54;100.00
62634;BME280;48704;50.534;6.442;2023-05-24T11:44:16;96205.75;;;10.75;100.00
62634;BME280;48704;50.534;6.442;2023-05-24T11:46:41;96196.59;;;10.83;100.00
62634;BME280;48704;50.534;6.442;2023-05-24T11:49:11;96195.81;;;10.92;99.57
62634;BME280;48704;50.534;6.442;2023-05-24T11:51:37;96199.72;;;10.76;100.00
62634;BME280;48704;50.534;6.442;2023-05-24T11:54:02;96192.13;;;10.09;100.00
62634;BME280;48704;50.534;6.442;2023-05-24T11:56:29;96199.47;;;10.25;100.00
62634;BME280;48704;50.534;6.442;2023-05-24T11:59:14;96196.88;;;10.30;100.00
62634;BME280;48704;50.534;6.442;2023-05-24T12:01:41;96197.69;;;9.07;100.00
62634;BME280;48704;50.534;6.442;2023-05-24T12:04:07;96191.13;;;9.45;100.00
62634;BME280;48704;50.534;6.442;2023-05-24T12:06:39;96191.69;;;9.70;100.00
62634;BME280;48704;50.534;6.442;2023-05-24T12:09:06;96190.50;;;10.21;100.00
62634;BME280;48704;50.534;6.442;2023-05-24T12:11:45;96194.13;;;10.09;100.00
62634;BME280;48704;50.534;6.442;2023-05-24T12:14:12;96193.69;;;10.10;100.00
62634;BME280;48704;50.534;6.442;2023-05-24T12:16:38;96187.91;;;10.45;100.00
62634;BME280;48704;50.534;6.442;2023-05-24T12:19:04;96196.53;;;10.19;100.00
62634;BME280;48704;50.534;6.442;2023-05-24T12:21:30;96198.03;;;9.71;100.00
62634;BME280;48704;50.534;6.442;2023-05-24T12:24:06;96193.47;;;9.86;100.00
62634;BME280;48704;50.534;6.442;2023-05-24T12:26:39;96197.38;;;9.27;100.00
62634;BME280;48704;50.534;6.442;2023-05-24T12:29:05;96193.81;;;8.83;100.00
62634;BME280;48704;50.534;6.442;2023-05-24T12:31:31;96191.34;;;9.59;100.00
62634;BME280;48704;50.534;6.442;2023-05-24T12:33:56;96192.75;;;9.64;100.00
62634;BME280;48704;50.534;6.442;2023-05-24T12:36:22;96200.44;;;10.49;100.00
62634;BME280;48704;50.534;6.442;2023-05-24T12:38:47;96195.06;;;10.05;100.00
62634;BME280;48704;50.534;6.442;2023-05-24T12:41:12;96194.00;;;9.72;100.00
62634;BME280;48704;50.534;6.442;2023-05-24T12:43:38;96196.56;;;9.88;100.00
62634;BME280;48704;50.534;6.442;2023-05-24T12:46:04;96198.66;;;9.75;100.00
62634;BME280;48704;50.534;6.442;2023-05-24T12:48:29;96182.97;;;10.40;100.00
62634;BME280;48704;50.534;6.442;2023-05-24T12:50:55;96184.78;;;10.43;100.00
62634;BME280;48704;50.534;6.442;2023-05-24T12:53:20;96181.25;;;10.88;100.00
62634;BME280;48704;50.534;6.442;2023-05-24T12:55:48;96180.00;;;10.98;100.00
62634;BME280;48704;50.534;6.442;2023-05-24T12:58:15;96186.59;;;11.46;100.00
62634;BME280;48704;50.534;6.442;2023-05-24T13:00:41;96179.47;;;11.45;100.00
62634;BME280;48704;50.534;6.442;2023-05-24T13:03:08;96181.09;;;11.00;100.00
62634;BME280;48704;50.534;6.442;2023-05-24T13:05:33;96180.94;;;10.49;100.00
62634;BME280;48704;50.534;6.442;2023-05-24T13:07:59;96185.16;;;9.95;100.00